ミラノ/マルペンサ の空港の天気 - METARとTAF

ミラノ・マルペンサ国際空港 ( LIMC / MXP ) - イタリア ミラノ
飛行場実況気象(Metar)
観測時間07/07 12:50 CEST (07/07 10:50 UTC)
風向・風速南南東 6m/s
視程10km以上
天気現象
全天の8割程度の雲 雲底高度 1370m
気温25℃
湿度54%
気圧1017hPa
METARLIMC 071050Z 16011KT 9999 BKN045 25/15 Q1017 NOSIG
過去の天気等 Google飛行場航空写真 Wunderground天気予報

過去48時間のMETAR

飛行場予報(TAF)
発表時間: 7/07 07:00 CEST (7/07 05:00 UTC)
予報対象時間: 7日8時 CEST ~ 8日14時 CEST
風向・風速北東 5m/s
視程10km以上
全天の4割程度の雲 雲底高度 910m
7日18時 CEST ~ 7日20時 CEST に徐々に
風向・風速不定 3m/s
TAF LIMC 070500Z 0706/0812 04010KT 9999 SCT030
BECMG 0716/0718 VRB05KT